Bluefield, West Virginia
Current Conditions -  °F | °C
As of 11:52 AM on Tuesday 21 Oct 2014 (Local Time) from KBLF Reporting Station
Overcast Overcast  
Wind Chill: 53°   Ceiling: 1100
Heat Index: 53°   Visibility: 10mi
Dew Point: 47°   Wind: 13mph
Humidity: 80%   Direction: 280°W
Pressure: 29.96"   Gusts: 21mph
Location:  37.27°N, 81.22°W
Report Text: KBLF 211552Z AUTO 28011G18KT 10SM BKN011 OVC020 12/08 A2996 RMK AO2 RAB19E36 SLP131 P0000 T01170083
Loading
Personal Weather Stations






























Interactive Weather Map
Tropical Storm Tracking
New forecast layout! Learn more

10-Day Weather Forecast

Advertisements
Track Severe Weather on mobile